sensor_id;sensor_type;location;lat;lon;timestamp;P1;durP1;ratioP1;P2;durP2;ratioP2
12480;SDS011;6305;48.398;11.762;2024-02-04T00:00:43;4.53;;;3.25;;
12480;SDS011;6305;48.398;11.762;2024-02-04T00:03:11;3.55;;;2.92;;
12480;SDS011;6305;48.398;11.762;2024-02-04T00:05:38;4.07;;;3.00;;
12480;SDS011;6305;48.398;11.762;2024-02-04T00:08:07;4.45;;;3.30;;
12480;SDS011;6305;48.398;11.762;2024-02-04T00:10:35;3.67;;;3.30;;
12480;SDS011;6305;48.398;11.762;2024-02-04T00:13:02;3.88;;;2.97;;
12480;SDS011;6305;48.398;11.762;2024-02-04T00:15:30;3.80;;;3.00;;
12480;SDS011;6305;48.398;11.762;2024-02-04T00:17:58;4.22;;;3.35;;
12480;SDS011;6305;48.398;11.762;2024-02-04T00:20:26;4.63;;;3.17;;
12480;SDS011;6305;48.398;11.762;2024-02-04T00:22:54;3.53;;;2.83;;
12480;SDS011;6305;48.398;11.762;2024-02-04T00:25:21;4.38;;;2.95;;
12480;SDS011;6305;48.398;11.762;2024-02-04T00:27:49;3.78;;;3.13;;
12480;SDS011;6305;48.398;11.762;2024-02-04T00:30:16;3.80;;;3.25;;
12480;SDS011;6305;48.398;11.762;2024-02-04T00:32:43;4.30;;;3.10;;
12480;SDS011;6305;48.398;11.762;2024-02-04T00:35:12;4.43;;;3.35;;
12480;SDS011;6305;48.398;11.762;2024-02-04T00:37:39;5.03;;;3.13;;
12480;SDS011;6305;48.398;11.762;2024-02-04T00:40:06;4.78;;;3.22;;
12480;SDS011;6305;48.398;11.762;2024-02-04T00:42:34;3.85;;;3.35;;
12480;SDS011;6305;48.398;11.762;2024-02-04T00:45:01;4.35;;;3.00;;
12480;SDS011;6305;48.398;11.762;2024-02-04T00:47:29;4.88;;;3.45;;
12480;SDS011;6305;48.398;11.762;2024-02-04T00:49:56;5.13;;;3.83;;
12480;SDS011;6305;48.398;11.762;2024-02-04T00:52:25;4.90;;;3.70;;
12480;SDS011;6305;48.398;11.762;2024-02-04T00:54:53;5.00;;;3.55;;
12480;SDS011;6305;48.398;11.762;2024-02-04T00:57:20;6.05;;;3.60;;
12480;SDS011;6305;48.398;11.762;2024-02-04T00:59:47;4.47;;;3.80;;
12480;SDS011;6305;48.398;11.762;2024-02-04T01:02:15;4.00;;;3.60;;
12480;SDS011;6305;48.398;11.762;2024-02-04T01:04:42;5.22;;;3.90;;
12480;SDS011;6305;48.398;11.762;2024-02-04T01:07:09;5.30;;;4.28;;
12480;SDS011;6305;48.398;11.762;2024-02-04T01:09:38;6.13;;;4.50;;
12480;SDS011;6305;48.398;11.762;2024-02-04T01:12:05;5.15;;;3.83;;
12480;SDS011;6305;48.398;11.762;2024-02-04T01:14:33;6.30;;;4.18;;
12480;SDS011;6305;48.398;11.762;2024-02-04T01:17:01;6.20;;;4.07;;
12480;SDS011;6305;48.398;11.762;2024-02-04T01:19:28;5.90;;;4.03;;
12480;SDS011;6305;48.398;11.762;2024-02-04T01:21:55;5.43;;;3.88;;
12480;SDS011;6305;48.398;11.762;2024-02-04T01:24:23;4.45;;;3.67;;
12480;SDS011;6305;48.398;11.762;2024-02-04T01:26:52;4.85;;;3.75;;
12480;SDS011;6305;48.398;11.762;2024-02-04T01:29:19;3.80;;;3.40;;
12480;SDS011;6305;48.398;11.762;2024-02-04T01:31:47;4.28;;;3.65;;
12480;SDS011;6305;48.398;11.762;2024-02-04T01:34:14;4.28;;;3.78;;
12480;SDS011;6305;48.398;11.762;2024-02-04T01:36:41;5.72;;;3.40;;
12480;SDS011;6305;48.398;11.762;2024-02-04T01:39:08;4.72;;;3.38;;
12480;SDS011;6305;48.398;11.762;2024-02-04T01:41:35;4.80;;;3.65;;
12480;SDS011;6305;48.398;11.762;2024-02-04T01:44:04;3.92;;;3.05;;
12480;SDS011;6305;48.398;11.762;2024-02-04T01:46:31;5.20;;;3.70;;
12480;SDS011;6305;48.398;11.762;2024-02-04T01:49:00;4.18;;;3.35;;
12480;SDS011;6305;48.398;11.762;2024-02-04T01:51:27;4.32;;;3.30;;
12480;SDS011;6305;48.398;11.762;2024-02-04T01:53:54;4.47;;;3.40;;
12480;SDS011;6305;48.398;11.762;2024-02-04T01:56:22;3.97;;;3.10;;
12480;SDS011;6305;48.398;11.762;2024-02-04T01:58:49;4.25;;;3.05;;
12480;SDS011;6305;48.398;11.762;2024-02-04T02:01:17;3.28;;;2.88;;
12480;SDS011;6305;48.398;11.762;2024-02-04T02:03:46;3.67;;;3.08;;
12480;SDS011;6305;48.398;11.762;2024-02-04T02:06:15;3.45;;;3.08;;
12480;SDS011;6305;48.398;11.762;2024-02-04T02:08:43;3.75;;;2.95;;
12480;SDS011;6305;48.398;11.762;2024-02-04T02:11:13;4.88;;;3.30;;
12480;SDS011;6305;48.398;11.762;2024-02-04T02:13:46;4.43;;;3.47;;
12480;SDS011;6305;48.398;11.762;2024-02-04T02:16:25;3.92;;;3.50;;
12480;SDS011;6305;48.398;11.762;2024-02-04T02:18:54;4.53;;;3.45;;
12480;SDS011;6305;48.398;11.762;2024-02-04T02:21:30;4.65;;;3.63;;
12480;SDS011;6305;48.398;11.762;2024-02-04T02:24:10;4.55;;;3.60;;
12480;SDS011;6305;48.398;11.762;2024-02-04T02:26:39;5.28;;;4.07;;
12480;SDS011;6305;48.398;11.762;2024-02-04T02:29:07;4.97;;;4.15;;
12480;SDS011;6305;48.398;11.762;2024-02-04T02:31:37;5.32;;;3.80;;
12480;SDS011;6305;48.398;11.762;2024-02-04T02:34:06;5.20;;;4.32;;
12480;SDS011;6305;48.398;11.762;2024-02-04T02:36:44;5.80;;;4.35;;
12480;SDS011;6305;48.398;11.762;2024-02-04T02:39:13;4.70;;;4.15;;
12480;SDS011;6305;48.398;11.762;2024-02-04T02:41:45;4.95;;;4.30;;
12480;SDS011;6305;48.398;11.762;2024-02-04T02:44:17;6.05;;;4.60;;
12480;SDS011;6305;48.398;11.762;2024-02-04T02:46:46;5.72;;;4.75;;
12480;SDS011;6305;48.398;11.762;2024-02-04T02:49:14;7.07;;;5.28;;
12480;SDS011;6305;48.398;11.762;2024-02-04T02:51:41;6.20;;;4.72;;
12480;SDS011;6305;48.398;11.762;2024-02-04T02:54:08;5.55;;;4.53;;
12480;SDS011;6305;48.398;11.762;2024-02-04T02:56:35;5.45;;;4.38;;
12480;SDS011;6305;48.398;11.762;2024-02-04T02:59:03;6.40;;;4.43;;
12480;SDS011;6305;48.398;11.762;2024-02-04T03:01:30;6.30;;;4.10;;
12480;SDS011;6305;48.398;11.762;2024-02-04T03:03:57;5.00;;;4.10;;
12480;SDS011;6305;48.398;11.762;2024-02-04T03:06:24;5.13;;;4.05;;
12480;SDS011;6305;48.398;11.762;2024-02-04T03:08:51;4.88;;;4.13;;
12480;SDS011;6305;48.398;11.762;2024-02-04T03:11:18;3.83;;;3.42;;
12480;SDS011;6305;48.398;11.762;2024-02-04T03:13:45;4.30;;;3.80;;
12480;SDS011;6305;48.398;11.762;2024-02-04T03:16:13;4.97;;;4.13;;
12480;SDS011;6305;48.398;11.762;2024-02-04T03:18:42;5.32;;;3.90;;
12480;SDS011;6305;48.398;11.762;2024-02-04T03:21:12;5.03;;;3.90;;
12480;SDS011;6305;48.398;11.762;2024-02-04T03:23:40;4.28;;;3.53;;
12480;SDS011;6305;48.398;11.762;2024-02-04T03:26:08;4.82;;;3.50;;
12480;SDS011;6305;48.398;11.762;2024-02-04T03:28:35;3.97;;;3.10;;
12480;SDS011;6305;48.398;11.762;2024-02-04T03:31:03;4.75;;;3.60;;
12480;SDS011;6305;48.398;11.762;2024-02-04T03:33:31;4.15;;;3.28;;
12480;SDS011;6305;48.398;11.762;2024-02-04T03:35:59;3.85;;;2.97;;
12480;SDS011;6305;48.398;11.762;2024-02-04T03:38:26;4.10;;;3.47;;
12480;SDS011;6305;48.398;11.762;2024-02-04T03:40:53;4.88;;;3.20;;
12480;SDS011;6305;48.398;11.762;2024-02-04T03:43:21;4.53;;;3.25;;
12480;SDS011;6305;48.398;11.762;2024-02-04T03:45:48;3.50;;;3.20;;
12480;SDS011;6305;48.398;11.762;2024-02-04T03:48:15;4.40;;;3.35;;
12480;SDS011;6305;48.398;11.762;2024-02-04T03:50:43;4.45;;;3.40;;
12480;SDS011;6305;48.398;11.762;2024-02-04T03:53:10;3.35;;;2.90;;
12480;SDS011;6305;48.398;11.762;2024-02-04T03:55:37;4.15;;;3.33;;
12480;SDS011;6305;48.398;11.762;2024-02-04T03:58:04;4.50;;;3.72;;
12480;SDS011;6305;48.398;11.762;2024-02-04T04:00:31;4.15;;;3.42;;
12480;SDS011;6305;48.398;11.762;2024-02-04T04:02:58;5.53;;;3.60;;
12480;SDS011;6305;48.398;11.762;2024-02-04T04:05:25;4.57;;;3.72;;
12480;SDS011;6305;48.398;11.762;2024-02-04T04:07:53;4.15;;;3.55;;
12480;SDS011;6305;48.398;11.762;2024-02-04T04:10:20;4.88;;;3.55;;
12480;SDS011;6305;48.398;11.762;2024-02-04T04:12:48;4.70;;;3.70;;
12480;SDS011;6305;48.398;11.762;2024-02-04T04:15:15;5.32;;;4.03;;
12480;SDS011;6305;48.398;11.762;2024-02-04T04:17:42;5.70;;;4.18;;
12480;SDS011;6305;48.398;11.762;2024-02-04T04:20:09;5.47;;;4.20;;
12480;SDS011;6305;48.398;11.762;2024-02-04T04:22:38;6.07;;;4.47;;
12480;SDS011;6305;48.398;11.762;2024-02-04T04:25:07;6.05;;;4.10;;
12480;SDS011;6305;48.398;11.762;2024-02-04T04:27:35;4.93;;;4.15;;
12480;SDS011;6305;48.398;11.762;2024-02-04T04:30:02;7.40;;;4.88;;
12480;SDS011;6305;48.398;11.762;2024-02-04T04:32:30;5.72;;;4.47;;
12480;SDS011;6305;48.398;11.762;2024-02-04T04:34:56;5.35;;;4.45;;
12480;SDS011;6305;48.398;11.762;2024-02-04T04:37:23;5.28;;;4.22;;
12480;SDS011;6305;48.398;11.762;2024-02-04T04:39:50;6.18;;;4.70;;
12480;SDS011;6305;48.398;11.762;2024-02-04T04:42:18;6.88;;;4.68;;
12480;SDS011;6305;48.398;11.762;2024-02-04T04:44:45;6.28;;;4.38;;
12480;SDS011;6305;48.398;11.762;2024-02-04T04:47:14;7.72;;;4.85;;
12480;SDS011;6305;48.398;11.762;2024-02-04T04:49:42;7.90;;;4.63;;
12480;SDS011;6305;48.398;11.762;2024-02-04T04:52:09;7.13;;;5.00;;
12480;SDS011;6305;48.398;11.762;2024-02-04T04:54:36;6.43;;;4.88;;
12480;SDS011;6305;48.398;11.762;2024-02-04T04:57:02;7.82;;;5.35;;
12480;SDS011;6305;48.398;11.762;2024-02-04T04:59:31;7.00;;;4.93;;
12480;SDS011;6305;48.398;11.762;2024-02-04T05:01:58;6.60;;;5.18;;
12480;SDS011;6305;48.398;11.762;2024-02-04T05:04:25;6.90;;;4.68;;
12480;SDS011;6305;48.398;11.762;2024-02-04T05:06:52;6.07;;;5.18;;
12480;SDS011;6305;48.398;11.762;2024-02-04T05:09:20;8.13;;;4.88;;
12480;SDS011;6305;48.398;11.762;2024-02-04T05:11:47;5.93;;;4.60;;
12480;SDS011;6305;48.398;11.762;2024-02-04T05:14:14;6.85;;;5.13;;
12480;SDS011;6305;48.398;11.762;2024-02-04T05:16:42;7.00;;;5.30;;
12480;SDS011;6305;48.398;11.762;2024-02-04T05:19:10;7.57;;;5.68;;
12480;SDS011;6305;48.398;11.762;2024-02-04T05:21:37;6.35;;;4.88;;
12480;SDS011;6305;48.398;11.762;2024-02-04T05:24:05;8.13;;;5.10;;
12480;SDS011;6305;48.398;11.762;2024-02-04T05:26:32;7.07;;;5.18;;
12480;SDS011;6305;48.398;11.762;2024-02-04T05:28:59;10.25;;;5.60;;
12480;SDS011;6305;48.398;11.762;2024-02-04T05:31:26;7.63;;;5.43;;
12480;SDS011;6305;48.398;11.762;2024-02-04T05:33:56;8.50;;;6.13;;
12480;SDS011;6305;48.398;11.762;2024-02-04T05:36:23;7.82;;;5.32;;
12480;SDS011;6305;48.398;11.762;2024-02-04T05:38:50;8.90;;;5.38;;
12480;SDS011;6305;48.398;11.762;2024-02-04T05:41:17;8.80;;;5.80;;
12480;SDS011;6305;48.398;11.762;2024-02-04T05:43:44;8.57;;;5.85;;
12480;SDS011;6305;48.398;11.762;2024-02-04T05:46:13;8.65;;;5.50;;
12480;SDS011;6305;48.398;11.762;2024-02-04T05:48:40;8.15;;;5.63;;
12480;SDS011;6305;48.398;11.762;2024-02-04T05:51:11;8.30;;;5.63;;
12480;SDS011;6305;48.398;11.762;2024-02-04T05:53:38;8.43;;;5.53;;
12480;SDS011;6305;48.398;11.762;2024-02-04T05:56:05;7.80;;;5.70;;
12480;SDS011;6305;48.398;11.762;2024-02-04T05:58:32;8.23;;;5.10;;
12480;SDS011;6305;48.398;11.762;2024-02-04T06:00:59;6.85;;;4.78;;
12480;SDS011;6305;48.398;11.762;2024-02-04T06:03:27;8.20;;;5.55;;
12480;SDS011;6305;48.398;11.762;2024-02-04T06:05:54;8.55;;;5.30;;
12480;SDS011;6305;48.398;11.762;2024-02-04T06:08:22;7.07;;;5.20;;
12480;SDS011;6305;48.398;11.762;2024-02-04T06:10:49;7.10;;;4.47;;
12480;SDS011;6305;48.398;11.762;2024-02-04T06:13:16;7.40;;;4.70;;
12480;SDS011;6305;48.398;11.762;2024-02-04T06:15:43;6.53;;;4.28;;
12480;SDS011;6305;48.398;11.762;2024-02-04T06:18:10;6.00;;;4.50;;
12480;SDS011;6305;48.398;11.762;2024-02-04T06:20:37;6.18;;;4.30;;
12480;SDS011;6305;48.398;11.762;2024-02-04T06:23:04;7.30;;;4.40;;
12480;SDS011;6305;48.398;11.762;2024-02-04T06:25:33;6.38;;;4.53;;
12480;SDS011;6305;48.398;11.762;2024-02-04T06:28:00;7.22;;;5.00;;
12480;SDS011;6305;48.398;11.762;2024-02-04T06:30:26;7.53;;;5.03;;
12480;SDS011;6305;48.398;11.762;2024-02-04T06:32:53;8.25;;;4.80;;
12480;SDS011;6305;48.398;11.762;2024-02-04T06:35:22;8.05;;;5.00;;
12480;SDS011;6305;48.398;11.762;2024-02-04T06:37:48;6.85;;;4.63;;
12480;SDS011;6305;48.398;11.762;2024-02-04T06:40:16;6.43;;;4.10;;
12480;SDS011;6305;48.398;11.762;2024-02-04T06:42:44;5.47;;;4.30;;
12480;SDS011;6305;48.398;11.762;2024-02-04T06:45:11;7.00;;;4.50;;
12480;SDS011;6305;48.398;11.762;2024-02-04T06:47:38;6.95;;;4.63;;
12480;SDS011;6305;48.398;11.762;2024-02-04T06:50:06;7.70;;;4.47;;
12480;SDS011;6305;48.398;11.762;2024-02-04T06:52:34;6.78;;;4.70;;
12480;SDS011;6305;48.398;11.762;2024-02-04T06:55:01;6.13;;;4.50;;
12480;SDS011;6305;48.398;11.762;2024-02-04T06:57:28;6.25;;;4.80;;
12480;SDS011;6305;48.398;11.762;2024-02-04T06:59:56;7.13;;;4.38;;
12480;SDS011;6305;48.398;11.762;2024-02-04T07:02:24;7.88;;;5.05;;
12480;SDS011;6305;48.398;11.762;2024-02-04T07:04:52;7.00;;;4.93;;
12480;SDS011;6305;48.398;11.762;2024-02-04T07:07:19;6.38;;;4.55;;
12480;SDS011;6305;48.398;11.762;2024-02-04T07:09:46;6.85;;;4.22;;
12480;SDS011;6305;48.398;11.762;2024-02-04T07:12:13;6.78;;;4.65;;
12480;SDS011;6305;48.398;11.762;2024-02-04T07:14:40;5.78;;;4.22;;
12480;SDS011;6305;48.398;11.762;2024-02-04T07:17:08;5.72;;;4.20;;
12480;SDS011;6305;48.398;11.762;2024-02-04T07:19:36;5.53;;;3.58;;
12480;SDS011;6305;48.398;11.762;2024-02-04T07:22:03;5.75;;;3.80;;
12480;SDS011;6305;48.398;11.762;2024-02-04T07:24:30;6.05;;;3.92;;
12480;SDS011;6305;48.398;11.762;2024-02-04T07:26:57;6.90;;;4.35;;
12480;SDS011;6305;48.398;11.762;2024-02-04T07:29:24;5.60;;;3.90;;
12480;SDS011;6305;48.398;11.762;2024-02-04T07:31:51;7.05;;;4.13;;
12480;SDS011;6305;48.398;11.762;2024-02-04T07:34:20;5.88;;;3.80;;
12480;SDS011;6305;48.398;11.762;2024-02-04T07:36:47;5.60;;;3.83;;
12480;SDS011;6305;48.398;11.762;2024-02-04T07:39:14;5.43;;;3.72;;
12480;SDS011;6305;48.398;11.762;2024-02-04T07:41:41;8.05;;;4.28;;
12480;SDS011;6305;48.398;11.762;2024-02-04T07:44:08;5.60;;;3.72;;
12480;SDS011;6305;48.398;11.762;2024-02-04T07:46:35;5.97;;;3.83;;
12480;SDS011;6305;48.398;11.762;2024-02-04T07:49:02;5.43;;;3.97;;
12480;SDS011;6305;48.398;11.762;2024-02-04T07:51:30;6.20;;;4.50;;
12480;SDS011;6305;48.398;11.762;2024-02-04T07:53:57;6.85;;;4.53;;
12480;SDS011;6305;48.398;11.762;2024-02-04T07:56:24;5.45;;;4.15;;
12480;SDS011;6305;48.398;11.762;2024-02-04T07:58:51;6.50;;;4.25;;
12480;SDS011;6305;48.398;11.762;2024-02-04T08:01:18;8.73;;;4.00;;
12480;SDS011;6305;48.398;11.762;2024-02-04T08:03:45;6.28;;;4.18;;
12480;SDS011;6305;48.398;11.762;2024-02-04T08:06:12;9.48;;;4.15;;
12480;SDS011;6305;48.398;11.762;2024-02-04T08:08:41;7.22;;;4.30;;
12480;SDS011;6305;48.398;11.762;2024-02-04T08:11:09;7.85;;;4.22;;
12480;SDS011;6305;48.398;11.762;2024-02-04T08:13:36;6.15;;;4.35;;
12480;SDS011;6305;48.398;11.762;2024-02-04T08:16:04;5.43;;;4.18;;
12480;SDS011;6305;48.398;11.762;2024-02-04T08:18:31;6.85;;;4.10;;
12480;SDS011;6305;48.398;11.762;2024-02-04T08:20:58;5.30;;;4.00;;
12480;SDS011;6305;48.398;11.762;2024-02-04T08:23:25;5.38;;;3.70;;
12480;SDS011;6305;48.398;11.762;2024-02-04T08:25:54;5.85;;;3.90;;
12480;SDS011;6305;48.398;11.762;2024-02-04T08:28:22;6.70;;;3.63;;
12480;SDS011;6305;48.398;11.762;2024-02-04T08:30:50;5.47;;;3.80;;
12480;SDS011;6305;48.398;11.762;2024-02-04T08:33:17;5.80;;;4.40;;
12480;SDS011;6305;48.398;11.762;2024-02-04T08:35:44;4.78;;;3.47;;
12480;SDS011;6305;48.398;11.762;2024-02-04T08:38:11;5.65;;;3.75;;
12480;SDS011;6305;48.398;11.762;2024-02-04T08:40:38;4.80;;;3.45;;
12480;SDS011;6305;48.398;11.762;2024-02-04T08:43:06;5.72;;;3.97;;
12480;SDS011;6305;48.398;11.762;2024-02-04T08:45:33;4.70;;;3.35;;
12480;SDS011;6305;48.398;11.762;2024-02-04T08:48:00;4.55;;;3.40;;
12480;SDS011;6305;48.398;11.762;2024-02-04T08:50:28;4.00;;;3.40;;
12480;SDS011;6305;48.398;11.762;2024-02-04T08:52:55;3.75;;;3.33;;
12480;SDS011;6305;48.398;11.762;2024-02-04T08:55:23;4.03;;;3.05;;
12480;SDS011;6305;48.398;11.762;2024-02-04T08:57:50;4.72;;;3.22;;
12480;SDS011;6305;48.398;11.762;2024-02-04T09:00:20;3.67;;;3.00;;
12480;SDS011;6305;48.398;11.762;2024-02-04T09:02:48;4.10;;;3.00;;
12480;SDS011;6305;48.398;11.762;2024-02-04T09:05:15;3.78;;;3.05;;
12480;SDS011;6305;48.398;11.762;2024-02-04T09:07:43;3.88;;;2.70;;
12480;SDS011;6305;48.398;11.762;2024-02-04T09:10:10;4.10;;;2.70;;
12480;SDS011;6305;48.398;11.762;2024-02-04T09:12:37;4.32;;;2.90;;
12480;SDS011;6305;48.398;11.762;2024-02-04T09:15:05;3.47;;;3.00;;
12480;SDS011;6305;48.398;11.762;2024-02-04T09:17:35;3.97;;;2.80;;
12480;SDS011;6305;48.398;11.762;2024-02-04T09:20:02;2.40;;;2.15;;
12480;SDS011;6305;48.398;11.762;2024-02-04T09:22:29;3.65;;;2.38;;
12480;SDS011;6305;48.398;11.762;2024-02-04T09:24:56;2.75;;;2.30;;
12480;SDS011;6305;48.398;11.762;2024-02-04T09:27:24;2.40;;;2.20;;
12480;SDS011;6305;48.398;11.762;2024-02-04T09:29:51;3.05;;;2.35;;
12480;SDS011;6305;48.398;11.762;2024-02-04T09:32:20;2.80;;;2.10;;
12480;SDS011;6305;48.398;11.762;2024-02-04T09:34:50;2.70;;;2.30;;
12480;SDS011;6305;48.398;11.762;2024-02-04T09:37:17;3.58;;;2.20;;
12480;SDS011;6305;48.398;11.762;2024-02-04T09:39:44;2.33;;;2.05;;
12480;SDS011;6305;48.398;11.762;2024-02-04T09:42:13;2.92;;;2.30;;
12480;SDS011;6305;48.398;11.762;2024-02-04T09:44:45;2.47;;;2.28;;
12480;SDS011;6305;48.398;11.762;2024-02-04T09:47:13;2.72;;;2.10;;
12480;SDS011;6305;48.398;11.762;2024-02-04T09:49:40;2.35;;;1.88;;
12480;SDS011;6305;48.398;11.762;2024-02-04T09:52:09;4.10;;;2.55;;
12480;SDS011;6305;48.398;11.762;2024-02-04T09:54:38;3.22;;;2.28;;
12480;SDS011;6305;48.398;11.762;2024-02-04T09:57:10;3.17;;;2.00;;
12480;SDS011;6305;48.398;11.762;2024-02-04T09:59:38;2.22;;;1.67;;
12480;SDS011;6305;48.398;11.762;2024-02-04T10:02:06;2.95;;;2.08;;
12480;SDS011;6305;48.398;11.762;2024-02-04T10:04:35;2.80;;;2.17;;
12480;SDS011;6305;48.398;11.762;2024-02-04T10:07:02;2.47;;;1.63;;
12480;SDS011;6305;48.398;11.762;2024-02-04T10:09:31;2.75;;;1.77;;
12480;SDS011;6305;48.398;11.762;2024-02-04T10:11:58;2.40;;;1.90;;
12480;SDS011;6305;48.398;11.762;2024-02-04T10:14:26;2.30;;;1.75;;
12480;SDS011;6305;48.398;11.762;2024-02-04T10:16:53;1.95;;;1.75;;
12480;SDS011;6305;48.398;11.762;2024-02-04T10:19:21;2.25;;;1.70;;
12480;SDS011;6305;48.398;11.762;2024-02-04T10:21:57;2.35;;;1.40;;
12480;SDS011;6305;48.398;11.762;2024-02-04T10:24:25;1.52;;;1.38;;
12480;SDS011;6305;48.398;11.762;2024-02-04T10:26:54;1.67;;;1.40;;
12480;SDS011;6305;48.398;11.762;2024-02-04T10:29:22;1.60;;;1.23;;
12480;SDS011;6305;48.398;11.762;2024-02-04T10:31:52;2.47;;;1.52;;
12480;SDS011;6305;48.398;11.762;2024-02-04T10:34:20;1.35;;;1.25;;
12480;SDS011;6305;48.398;11.762;2024-02-04T10:36:47;2.78;;;1.40;;
12480;SDS011;6305;48.398;11.762;2024-02-04T10:39:14;1.95;;;1.05;;
12480;SDS011;6305;48.398;11.762;2024-02-04T10:41:43;1.60;;;1.20;;
12480;SDS011;6305;48.398;11.762;2024-02-04T10:44:17;1.55;;;1.20;;
12480;SDS011;6305;48.398;11.762;2024-02-04T10:50:59;1.40;;;1.20;;
12480;SDS011;6305;48.398;11.762;2024-02-04T10:53:27;1.38;;;1.13;;
12480;SDS011;6305;48.398;11.762;2024-02-04T10:55:54;1.73;;;1.00;;
12480;SDS011;6305;48.398;11.762;2024-02-04T10:58:26;1.73;;;1.00;;
12480;SDS011;6305;48.398;11.762;2024-02-04T11:00:56;1.90;;;1.05;;
12480;SDS011;6305;48.398;11.762;2024-02-04T11:03:23;1.65;;;1.10;;
12480;SDS011;6305;48.398;11.762;2024-02-04T11:05:53;1.17;;;1.02;;
12480;SDS011;6305;48.398;11.762;2024-02-04T11:08:21;0.82;;;0.82;;
12480;SDS011;6305;48.398;11.762;2024-02-04T11:10:48;1.27;;;1.08;;
12480;SDS011;6305;48.398;11.762;2024-02-04T11:13:18;1.67;;;1.17;;
12480;SDS011;6305;48.398;11.762;2024-02-04T11:15:48;1.80;;;1.10;;
12480;SDS011;6305;48.398;11.762;2024-02-04T11:21:25;1.63;;;1.10;;
12480;SDS011;6305;48.398;11.762;2024-02-04T11:24:18;1.25;;;1.15;;
12480;SDS011;6305;48.398;11.762;2024-02-04T11:26:57;1.40;;;0.90;;
12480;SDS011;6305;48.398;11.762;2024-02-04T11:29:24;1.73;;;1.10;;
12480;SDS011;6305;48.398;11.762;2024-02-04T11:31:52;2.58;;;1.40;;
12480;SDS011;6305;48.398;11.762;2024-02-04T11:34:22;2.35;;;1.52;;
12480;SDS011;6305;48.398;11.762;2024-02-04T11:36:49;2.30;;;1.50;;
12480;SDS011;6305;48.398;11.762;2024-02-04T11:39:17;1.60;;;1.10;;
12480;SDS011;6305;48.398;11.762;2024-02-04T11:41:48;2.80;;;1.60;;
12480;SDS011;6305;48.398;11.762;2024-02-04T11:44:19;1.65;;;1.13;;
12480;SDS011;6305;48.398;11.762;2024-02-04T11:46:47;1.67;;;1.30;;
12480;SDS011;6305;48.398;11.762;2024-02-04T11:49:14;1.30;;;1.15;;
12480;SDS011;6305;48.398;11.762;2024-02-04T11:51:45;1.50;;;1.10;;
12480;SDS011;6305;48.398;11.762;2024-02-04T11:54:14;1.05;;;0.95;;
12480;SDS011;6305;48.398;11.762;2024-02-04T11:56:43;2.35;;;1.20;;
12480;SDS011;6305;48.398;11.762;2024-02-04T11:59:11;3.42;;;1.10;;
12480;SDS011;6305;48.398;11.762;2024-02-04T12:01:39;1.00;;;0.90;;
12480;SDS011;6305;48.398;11.762;2024-02-04T12:04:10;1.52;;;1.05;;
12480;SDS011;6305;48.398;11.762;2024-02-04T12:06:39;2.30;;;1.17;;
12480;SDS011;6305;48.398;11.762;2024-02-04T12:09:08;2.13;;;1.08;;
12480;SDS011;6305;48.398;11.762;2024-02-04T12:11:36;2.33;;;1.00;;
12480;SDS011;6305;48.398;11.762;2024-02-04T12:14:04;1.30;;;0.98;;
12480;SDS011;6305;48.398;11.762;2024-02-04T12:16:33;1.50;;;1.20;;
12480;SDS011;6305;48.398;11.762;2024-02-04T12:19:01;1.67;;;0.90;;
12480;SDS011;6305;48.398;11.762;2024-02-04T12:21:29;2.92;;;1.27;;
12480;SDS011;6305;48.398;11.762;2024-02-04T12:23:57;1.67;;;0.90;;
12480;SDS011;6305;48.398;11.762;2024-02-04T12:26:26;1.23;;;0.85;;
12480;SDS011;6305;48.398;11.762;2024-02-04T12:28:54;2.33;;;1.10;;
12480;SDS011;6305;48.398;11.762;2024-02-04T12:31:21;2.05;;;1.00;;
12480;SDS011;6305;48.398;11.762;2024-02-04T12:33:54;1.05;;;0.90;;
12480;SDS011;6305;48.398;11.762;2024-02-04T12:36:23;1.90;;;0.98;;
12480;SDS011;6305;48.398;11.762;2024-02-04T12:38:54;2.15;;;0.95;;
12480;SDS011;6305;48.398;11.762;2024-02-04T12:41:22;2.25;;;0.90;;
12480;SDS011;6305;48.398;11.762;2024-02-04T12:43:51;2.03;;;1.27;;
12480;SDS011;6305;48.398;11.762;2024-02-04T12:46:19;3.22;;;1.13;;
12480;SDS011;6305;48.398;11.762;2024-02-04T12:48:50;3.92;;;1.17;;
12480;SDS011;6305;48.398;11.762;2024-02-04T12:51:23;1.67;;;1.13;;
12480;SDS011;6305;48.398;11.762;2024-02-04T12:54:01;2.00;;;1.20;;
12480;SDS011;6305;48.398;11.762;2024-02-04T12:56:39;1.10;;;1.00;;
12480;SDS011;6305;48.398;11.762;2024-02-04T12:59:08;1.42;;;1.00;;
12480;SDS011;6305;48.398;11.762;2024-02-04T13:01:35;2.15;;;1.10;;
12480;SDS011;6305;48.398;11.762;2024-02-04T13:04:03;2.88;;;1.20;;
12480;SDS011;6305;48.398;11.762;2024-02-04T13:06:37;2.83;;;1.20;;
12480;SDS011;6305;48.398;11.762;2024-02-04T13:09:13;1.33;;;1.20;;
12480;SDS011;6305;48.398;11.762;2024-02-04T13:11:41;1.95;;;1.20;;
12480;SDS011;6305;48.398;11.762;2024-02-04T13:14:10;2.10;;;1.42;;
12480;SDS011;6305;48.398;11.762;2024-02-04T13:16:37;2.00;;;1.10;;
12480;SDS011;6305;48.398;11.762;2024-02-04T13:19:04;1.98;;;1.30;;
12480;SDS011;6305;48.398;11.762;2024-02-04T13:21:32;1.92;;;1.30;;
12480;SDS011;6305;48.398;11.762;2024-02-04T13:23:59;2.55;;;1.20;;
12480;SDS011;6305;48.398;11.762;2024-02-04T13:26:26;1.20;;;1.10;;
12480;SDS011;6305;48.398;11.762;2024-02-04T13:28:54;1.63;;;1.20;;
12480;SDS011;6305;48.398;11.762;2024-02-04T13:31:22;1.70;;;0.93;;
12480;SDS011;6305;48.398;11.762;2024-02-04T13:33:49;1.50;;;1.10;;
12480;SDS011;6305;48.398;11.762;2024-02-04T13:36:16;3.17;;;1.15;;
12480;SDS011;6305;48.398;11.762;2024-02-04T13:38:43;1.52;;;1.15;;
12480;SDS011;6305;48.398;11.762;2024-02-04T13:41:10;1.60;;;1.15;;
12480;SDS011;6305;48.398;11.762;2024-02-04T13:43:37;1.75;;;1.10;;
12480;SDS011;6305;48.398;11.762;2024-02-04T13:46:05;1.15;;;1.08;;
12480;SDS011;6305;48.398;11.762;2024-02-04T13:48:33;3.53;;;1.50;;
12480;SDS011;6305;48.398;11.762;2024-02-04T13:51:00;2.17;;;1.40;;
12480;SDS011;6305;48.398;11.762;2024-02-04T13:53:28;2.05;;;1.38;;
12480;SDS011;6305;48.398;11.762;2024-02-04T13:55:57;3.67;;;1.40;;
12480;SDS011;6305;48.398;11.762;2024-02-04T13:58:24;2.20;;;1.48;;
12480;SDS011;6305;48.398;11.762;2024-02-04T14:00:52;2.75;;;1.70;;
12480;SDS011;6305;48.398;11.762;2024-02-04T14:03:19;1.80;;;1.70;;
12480;SDS011;6305;48.398;11.762;2024-02-04T14:05:47;2.40;;;1.70;;
12480;SDS011;6305;48.398;11.762;2024-02-04T14:08:15;4.10;;;2.25;;
12480;SDS011;6305;48.398;11.762;2024-02-04T14:10:42;3.72;;;2.03;;
12480;SDS011;6305;48.398;11.762;2024-02-04T14:13:09;3.08;;;1.80;;
12480;SDS011;6305;48.398;11.762;2024-02-04T14:15:37;3.38;;;1.92;;
12480;SDS011;6305;48.398;11.762;2024-02-04T14:18:04;2.40;;;1.73;;
12480;SDS011;6305;48.398;11.762;2024-02-04T14:20:32;3.08;;;1.73;;
12480;SDS011;6305;48.398;11.762;2024-02-04T14:23:00;3.40;;;2.00;;
12480;SDS011;6305;48.398;11.762;2024-02-04T14:25:27;2.95;;;1.60;;
12480;SDS011;6305;48.398;11.762;2024-02-04T14:27:54;3.95;;;2.05;;
12480;SDS011;6305;48.398;11.762;2024-02-04T14:30:21;3.30;;;1.80;;
12480;SDS011;6305;48.398;11.762;2024-02-04T14:32:49;3.33;;;1.67;;
12480;SDS011;6305;48.398;11.762;2024-02-04T14:35:16;2.33;;;1.70;;
12480;SDS011;6305;48.398;11.762;2024-02-04T14:37:43;2.10;;;1.83;;
12480;SDS011;6305;48.398;11.762;2024-02-04T14:40:12;2.10;;;1.98;;
12480;SDS011;6305;48.398;11.762;2024-02-04T14:42:39;1.98;;;1.58;;
12480;SDS011;6305;48.398;11.762;2024-02-04T14:45:07;2.10;;;1.77;;
12480;SDS011;6305;48.398;11.762;2024-02-04T14:47:36;2.70;;;2.10;;
12480;SDS011;6305;48.398;11.762;2024-02-04T14:50:03;4.05;;;1.73;;
12480;SDS011;6305;48.398;11.762;2024-02-04T14:52:31;2.83;;;1.80;;
12480;SDS011;6305;48.398;11.762;2024-02-04T14:54:58;2.70;;;1.90;;
12480;SDS011;6305;48.398;11.762;2024-02-04T14:57:27;2.53;;;1.80;;
12480;SDS011;6305;48.398;11.762;2024-02-04T14:59:54;1.98;;;1.77;;